Time;durP1;ratioP1;P1;durP2;ratioP2;P2;SDS_P1;SDS_P2;PMS_P1;PMS_P2;Temp;Humidity;BMP_temperature;BMP_pressure;BME280_temperature;BME280_humidity;BME280_pressure;Samples;Min_cycle;Max_cycle;Signal;HPM_P1;HPM_P2
2022/05/09 00:01:47;;;;;;;6.70;2.25;;;;;;;;;;6310293;22;20147;-60
2022/05/09 00:04:13;;;;;;;4.78;2.13;;;;;;;;;;6309613;22;20154;-59
2022/05/09 00:06:39;;;;;;;6.30;2.05;;;;;;;;;;6309863;22;20547;-58
2022/05/09 00:09:05;;;;;;;7.50;2.50;;;;;;;;;;6309906;22;20174;-62
2022/05/09 00:11:31;;;;;;;8.15;2.45;;;;;;;;;;6310343;22;20142;-61
2022/05/09 00:13:58;;;;;;;6.30;1.88;;;;;;;;;;6309916;22;20143;-62
2022/05/09 00:16:24;;;;;;;4.93;1.80;;;;;;;;;;6310053;22;20469;-60
2022/05/09 00:18:50;;;;;;;6.15;2.00;;;;;;;;;;6309438;22;20163;-61
2022/05/09 00:21:16;;;;;;;6.57;2.35;;;;;;;;;;6309874;22;20165;-61
2022/05/09 00:23:42;;;;;;;5.18;2.22;;;;;;;;;;6309368;22;20547;-60
2022/05/09 00:26:08;;;;;;;5.05;2.28;;;;;;;;;;6309472;22;20149;-60
2022/05/09 00:28:34;;;;;;;8.82;1.92;;;;;;;;;;6309382;22;20151;-60
2022/05/09 00:31:00;;;;;;;7.50;1.92;;;;;;;;;;6309353;22;20163;-62
2022/05/09 00:33:26;;;;;;;7.22;2.55;;;;;;;;;;6309030;22;20138;-58
2022/05/09 00:35:52;;;;;;;4.82;2.00;;;;;;;;;;6309388;22;20198;-60
2022/05/09 00:38:18;;;;;;;5.38;1.73;;;;;;;;;;6309036;22;20152;-61
2022/05/09 00:41:28;;;;;;;7.88;2.20;;;;;;;;;;6308924;22;20143;-60
2022/05/09 00:43:32;;;;;;;6.63;2.85;;;;;;;;;;6308744;22;20209;-60
2022/05/09 00:45:58;;;;;;;6.53;2.20;;;;;;;;;;6308972;22;20441;-62
2022/05/09 00:48:24;;;;;;;10.07;2.20;;;;;;;;;;6309236;22;20234;-62
2022/05/09 00:50:49;;;;;;;5.63;1.95;;;;;;;;;;6308995;22;20143;-61
2022/05/09 00:53:15;;;;;;;8.68;2.45;;;;;;;;;;6308865;22;20205;-61
2022/05/09 00:55:45;;;;;;;7.80;2.00;;;;;;;;;;6308629;22;20193;-61
2022/05/09 00:58:11;;;;;;;7.47;2.08;;;;;;;;;;6309280;22;20200;-61
2022/05/09 01:00:37;;;;;;;7.55;2.10;;;;;;;;;;6308883;22;20438;-61
2022/05/09 01:03:06;;;;;;;6.45;2.17;;;;;;;;;;6309044;22;20147;-61
2022/05/09 01:05:32;;;;;;;9.20;2.67;;;;;;;;;;6309009;22;20146;-61
2022/05/09 01:07:59;;;;;;;7.45;2.20;;;;;;;;;;6308675;22;20574;-61
2022/05/09 01:10:30;;;;;;;10.63;2.65;;;;;;;;;;6308892;22;20146;-61
2022/05/09 01:12:56;;;;;;;10.55;2.95;;;;;;;;;;6309151;22;20456;-60
2022/05/09 01:15:22;;;;;;;10.88;2.67;;;;;;;;;;6308439;22;20162;-60
2022/05/09 01:17:50;;;;;;;6.68;2.67;;;;;;;;;;6308999;22;20157;-62
2022/05/09 01:20:17;;;;;;;10.35;2.80;;;;;;;;;;6308826;22;20139;-62
2022/05/09 01:22:43;;;;;;;9.50;2.97;;;;;;;;;;6308890;22;20175;-62
2022/05/09 01:25:11;;;;;;;10.25;2.83;;;;;;;;;;6308815;22;20238;-62
2022/05/09 01:27:38;;;;;;;11.32;3.30;;;;;;;;;;6308502;22;20489;-62
2022/05/09 01:30:14;;;;;;;9.13;4.22;;;;;;;;;;6308358;22;20151;-62
2022/05/09 01:32:50;;;;;;;11.00;4.00;;;;;;;;;;6308416;22;20626;-62
2022/05/09 01:35:19;;;;;;;11.23;4.35;;;;;;;;;;6308370;22;20170;-62
2022/05/09 01:37:48;;;;;;;11.73;4.03;;;;;;;;;;6308399;22;20635;-62
2022/05/09 01:40:15;;;;;;;9.05;3.75;;;;;;;;;;6308381;22;20139;-62
2022/05/09 01:42:41;;;;;;;10.10;3.75;;;;;;;;;;6308747;22;20150;-62
2022/05/09 01:45:07;;;;;;;9.38;4.43;;;;;;;;;;6308654;22;20250;-63
2022/05/09 01:50:18;;;;;;;7.53;4.88;;;;;;;;;;6308285;22;20542;-60
2022/05/09 01:52:44;;;;;;;10.57;5.13;;;;;;;;;;6308278;22;20150;-62
2022/05/09 01:55:10;;;;;;;22.75;6.10;;;;;;;;;;6308316;22;20501;-62
2022/05/09 01:57:36;;;;;;;13.38;6.20;;;;;;;;;;6308203;22;20165;-61
2022/05/09 02:00:06;;;;;;;19.77;6.30;;;;;;;;;;6308490;22;20143;-62
2022/05/09 02:02:32;;;;;;;15.80;6.65;;;;;;;;;;6308172;22;20449;-62
2022/05/09 02:04:58;;;;;;;13.00;6.90;;;;;;;;;;6308180;22;20154;-62
2022/05/09 02:07:24;;;;;;;18.27;6.32;;;;;;;;;;6308113;22;20226;-62
2022/05/09 02:09:50;;;;;;;20.95;7.75;;;;;;;;;;6308058;22;20550;-62
2022/05/09 02:12:16;;;;;;;26.10;8.10;;;;;;;;;;6308113;22;20139;-62
2022/05/09 02:14:43;;;;;;;21.10;8.13;;;;;;;;;;6307930;22;20166;-62
2022/05/09 02:17:09;;;;;;;27.42;8.35;;;;;;;;;;6308406;22;20143;-62
2022/05/09 02:19:35;;;;;;;27.15;8.88;;;;;;;;;;6308037;22;20139;-62
2022/05/09 02:22:01;;;;;;;20.50;8.15;;;;;;;;;;6308035;22;20149;-60
2022/05/09 02:24:28;;;;;;;31.90;9.32;;;;;;;;;;6308120;22;20139;-63
2022/05/09 02:26:54;;;;;;;30.45;9.13;;;;;;;;;;6308195;22;20157;-62
2022/05/09 02:29:20;;;;;;;23.65;9.30;;;;;;;;;;6307976;22;20143;-61
2022/05/09 02:31:46;;;;;;;21.30;10.00;;;;;;;;;;6307723;22;20176;-62
2022/05/09 02:34:12;;;;;;;29.58;9.43;;;;;;;;;;6307910;22;20142;-62
2022/05/09 02:36:38;;;;;;;24.45;10.45;;;;;;;;;;6307970;22;20135;-62
2022/05/09 02:39:04;;;;;;;22.00;10.55;;;;;;;;;;6308178;22;20173;-60
2022/05/09 02:41:30;;;;;;;22.00;10.60;;;;;;;;;;6307949;22;20177;-62
2022/05/09 02:43:56;;;;;;;22.63;10.63;;;;;;;;;;6308030;22;20135;-62
2022/05/09 02:46:22;;;;;;;18.90;10.23;;;;;;;;;;6308611;22;20181;-62
2022/05/09 02:48:49;;;;;;;18.25;9.30;;;;;;;;;;6307907;22;20139;-62
2022/05/09 02:51:15;;;;;;;18.73;10.35;;;;;;;;;;6307778;22;20170;-62
2022/05/09 02:53:41;;;;;;;17.42;9.40;;;;;;;;;;6308193;22;20135;-62
2022/05/09 02:56:07;;;;;;;18.60;9.02;;;;;;;;;;6308519;22;20177;-62
2022/05/09 02:58:33;;;;;;;16.23;8.70;;;;;;;;;;6307904;22;20515;-61
2022/05/09 03:00:59;;;;;;;14.00;8.48;;;;;;;;;;6307755;22;20135;-60
2022/05/09 03:06:10;;;;;;;14.13;8.20;;;;;;;;;;6318052;22;20153;-62
2022/05/09 03:08:36;;;;;;;11.82;7.93;;;;;;;;;;6315170;22;20143;-62
2022/05/09 03:11:02;;;;;;;15.25;8.10;;;;;;;;;;6307838;22;20143;-62
2022/05/09 03:13:28;;;;;;;16.70;8.40;;;;;;;;;;6308117;22;20204;-62
2022/05/09 03:15:54;;;;;;;11.57;8.02;;;;;;;;;;6307421;22;20601;-62
2022/05/09 03:18:24;;;;;;;13.40;7.93;;;;;;;;;;6307787;22;20177;-62
2022/05/09 03:20:51;;;;;;;13.52;7.80;;;;;;;;;;6307633;22;20135;-62
2022/05/09 03:23:17;;;;;;;12.25;7.68;;;;;;;;;;6308020;22;20267;-62
2022/05/09 03:25:43;;;;;;;9.52;7.28;;;;;;;;;;6308143;22;20546;-62
2022/05/09 03:28:11;;;;;;;13.07;7.63;;;;;;;;;;6307783;22;20139;-62
2022/05/09 03:30:37;;;;;;;10.52;6.80;;;;;;;;;;6307494;22;20143;-62
2022/05/09 03:33:04;;;;;;;8.90;6.32;;;;;;;;;;6308138;22;20214;-62
2022/05/09 03:35:30;;;;;;;9.30;6.43;;;;;;;;;;6307477;22;20163;-62
2022/05/09 03:37:56;;;;;;;9.93;6.30;;;;;;;;;;6308083;22;20139;-62
2022/05/09 03:40:22;;;;;;;8.32;6.45;;;;;;;;;;6307554;22;20142;-62
2022/05/09 03:42:49;;;;;;;8.85;6.30;;;;;;;;;;6307966;22;20166;-62
2022/05/09 03:45:15;;;;;;;9.30;5.78;;;;;;;;;;6307976;22;20147;-62
2022/05/09 03:47:41;;;;;;;6.40;5.25;;;;;;;;;;6307473;22;20151;-62
2022/05/09 03:50:08;;;;;;;7.45;5.10;;;;;;;;;;6307928;22;20226;-62
2022/05/09 03:52:34;;;;;;;7.38;5.07;;;;;;;;;;6308031;22;20208;-61
2022/05/09 03:55:00;;;;;;;7.20;5.25;;;;;;;;;;6307731;22;20189;-61
2022/05/09 03:57:26;;;;;;;7.82;4.72;;;;;;;;;;6307738;22;20135;-60
2022/05/09 03:59:53;;;;;;;6.78;5.28;;;;;;;;;;6309457;22;20520;-61
2022/05/09 04:02:18;;;;;;;6.85;4.90;;;;;;;;;;6309710;22;20169;-61
2022/05/09 04:04:44;;;;;;;8.88;6.03;;;;;;;;;;6309441;22;20605;-62
2022/05/09 04:07:10;;;;;;;6.35;4.85;;;;;;;;;;6309685;22;20147;-61
2022/05/09 04:09:36;;;;;;;7.40;5.35;;;;;;;;;;6309965;22;20154;-60
2022/05/09 04:12:03;;;;;;;6.60;5.13;;;;;;;;;;6309567;22;20146;-61
2022/05/09 04:17:14;;;;;;;7.18;5.60;;;;;;;;;;6309189;22;20430;-62
2022/05/09 04:19:41;;;;;;;7.03;5.93;;;;;;;;;;6309569;22;20153;-62
2022/05/09 04:22:07;;;;;;;7.85;5.57;;;;;;;;;;6309300;22;20232;-62
2022/05/09 04:24:33;;;;;;;5.95;5.10;;;;;;;;;;6309085;22;20211;-62
2022/05/09 04:26:59;;;;;;;7.90;5.70;;;;;;;;;;6309221;22;20211;-62
2022/05/09 04:29:26;;;;;;;8.15;6.18;;;;;;;;;;6309410;22;20147;-62
2022/05/09 04:31:52;;;;;;;7.93;5.90;;;;;;;;;;6308828;22;20155;-62
2022/05/09 04:34:18;;;;;;;9.93;5.50;;;;;;;;;;6308945;22;20139;-62
2022/05/09 04:36:44;;;;;;;6.35;5.18;;;;;;;;;;6309230;22;20232;-62
2022/05/09 04:39:10;;;;;;;6.40;5.20;;;;;;;;;;6309325;22;20147;-62
2022/05/09 04:41:36;;;;;;;6.80;4.93;;;;;;;;;;6309013;22;20558;-61
2022/05/09 04:44:03;;;;;;;7.70;4.85;;;;;;;;;;6309289;22;20222;-62
2022/05/09 04:46:29;;;;;;;4.70;4.18;;;;;;;;;;6309268;22;20242;-62
2022/05/09 04:48:55;;;;;;;5.70;4.32;;;;;;;;;;6309081;22;20171;-62
2022/05/09 04:51:22;;;;;;;6.25;4.45;;;;;;;;;;6308646;22;20142;-62
2022/05/09 04:53:49;;;;;;;5.72;4.35;;;;;;;;;;6309205;22;20276;-62
2022/05/09 04:56:16;;;;;;;5.10;4.20;;;;;;;;;;6308978;22;20170;-62
2022/05/09 04:58:42;;;;;;;5.78;4.03;;;;;;;;;;6308750;22;20150;-62
2022/05/09 05:01:08;;;;;;;7.18;4.85;;;;;;;;;;6309027;22;20143;-61
2022/05/09 05:03:34;;;;;;;4.47;4.07;;;;;;;;;;6308809;22;20211;-62
2022/05/09 05:06:00;;;;;;;6.85;4.32;;;;;;;;;;6308715;22;20518;-62
2022/05/09 05:08:30;;;;;;;6.20;4.38;;;;;;;;;;6308509;22;20150;-62
2022/05/09 05:10:56;;;;;;;5.75;4.35;;;;;;;;;;6308502;22;20561;-62
2022/05/09 05:13:23;;;;;;;5.43;3.83;;;;;;;;;;6308491;22;20146;-62
2022/05/09 05:15:48;;;;;;;4.32;3.92;;;;;;;;;;6308721;22;20166;-62
2022/05/09 05:18:19;;;;;;;6.03;3.90;;;;;;;;;;6308745;22;20150;-62
2022/05/09 05:20:44;;;;;;;4.75;3.70;;;;;;;;;;6308695;22;20439;-63
2022/05/09 05:23:10;;;;;;;4.68;3.60;;;;;;;;;;6308432;22;20135;-60
2022/05/09 05:25:40;;;;;;;4.07;3.55;;;;;;;;;;6308348;22;20195;-62
2022/05/09 05:28:06;;;;;;;5.30;3.55;;;;;;;;;;6308387;22;20150;-61
2022/05/09 05:30:32;;;;;;;5.32;3.45;;;;;;;;;;6308882;22;20151;-60
2022/05/09 05:32:59;;;;;;;4.43;3.40;;;;;;;;;;6308738;22;20161;-62
2022/05/09 05:35:25;;;;;;;3.60;3.30;;;;;;;;;;6308801;22;20202;-61
2022/05/09 05:37:51;;;;;;;3.65;3.20;;;;;;;;;;6308854;22;20161;-60
2022/05/09 05:40:17;;;;;;;4.47;3.00;;;;;;;;;;6308394;22;20182;-61
2022/05/09 05:42:44;;;;;;;4.13;3.35;;;;;;;;;;6308918;22;20139;-62
2022/05/09 05:45:11;;;;;;;4.22;3.67;;;;;;;;;;6308395;22;20234;-62
2022/05/09 05:47:37;;;;;;;4.03;3.38;;;;;;;;;;6308591;22;20586;-62
2022/05/09 05:50:03;;;;;;;4.45;3.58;;;;;;;;;;6308586;22;20147;-62
2022/05/09 05:52:30;;;;;;;5.47;4.05;;;;;;;;;;6308031;22;20235;-62
2022/05/09 05:54:56;;;;;;;4.80;3.38;;;;;;;;;;6308362;22;20198;-63
2022/05/09 05:57:25;;;;;;;4.72;3.70;;;;;;;;;;6308067;22;20166;-62
2022/05/09 05:59:53;;;;;;;4.50;4.10;;;;;;;;;;6308138;22;20550;-65
2022/05/09 06:02:19;;;;;;;4.07;3.67;;;;;;;;;;6307884;22;20584;-62
2022/05/09 06:04:45;;;;;;;4.05;3.42;;;;;;;;;;6308064;22;20508;-62
2022/05/09 06:07:12;;;;;;;5.22;3.97;;;;;;;;;;6308210;22;20581;-62
2022/05/09 06:09:39;;;;;;;4.65;3.50;;;;;;;;;;6308479;22;20139;-62
2022/05/09 06:12:05;;;;;;;6.85;3.50;;;;;;;;;;6307796;22;20238;-63
2022/05/09 06:14:31;;;;;;;5.38;3.47;;;;;;;;;;6307728;22;20162;-62
2022/05/09 06:16:57;;;;;;;3.55;3.20;;;;;;;;;;6307867;22;20480;-62
2022/05/09 06:19:24;;;;;;;3.88;3.33;;;;;;;;;;6307875;22;20543;-61
2022/05/09 06:21:50;;;;;;;5.55;2.97;;;;;;;;;;6307894;22;20135;-62
2022/05/09 06:24:16;;;;;;;3.10;2.80;;;;;;;;;;6307950;22;20313;-62
2022/05/09 06:26:44;;;;;;;4.25;3.10;;;;;;;;;;6307716;22;20138;-62
2022/05/09 06:29:10;;;;;;;3.78;2.70;;;;;;;;;;6308014;22;20175;-62
2022/05/09 06:31:37;;;;;;;4.32;3.28;;;;;;;;;;6307828;22;20155;-63
2022/05/09 06:34:04;;;;;;;3.38;2.60;;;;;;;;;;6307672;22;20174;-62
2022/05/09 06:36:33;;;;;;;3.30;3.00;;;;;;;;;;6307795;22;20573;-62
2022/05/09 06:38:59;;;;;;;3.83;2.95;;;;;;;;;;6307818;22;20144;-62
2022/05/09 06:41:25;;;;;;;5.57;4.10;;;;;;;;;;6307971;22;20211;-62
2022/05/09 06:43:51;;;;;;;3.45;2.80;;;;;;;;;;6307763;22;20407;-62
2022/05/09 06:46:17;;;;;;;6.25;3.15;;;;;;;;;;6307618;22;20135;-61
2022/05/09 06:48:43;;;;;;;5.85;2.78;;;;;;;;;;6307632;22;20166;-61
2022/05/09 06:51:09;;;;;;;4.80;3.35;;;;;;;;;;6308020;22;20155;-61
2022/05/09 06:53:35;;;;;;;4.53;3.00;;;;;;;;;;6307484;22;20146;-62
2022/05/09 06:56:00;;;;;;;3.20;2.90;;;;;;;;;;6307569;22;20166;-61
2022/05/09 06:58:27;;;;;;;4.57;2.47;;;;;;;;;;6307588;22;20166;-62
2022/05/09 07:00:53;;;;;;;3.15;2.50;;;;;;;;;;6308345;22;20142;-61
2022/05/09 07:03:19;;;;;;;3.55;2.50;;;;;;;;;;6307860;22;20150;-62
2022/05/09 07:05:46;;;;;;;4.57;2.88;;;;;;;;;;6307648;22;20147;-62
2022/05/09 07:08:12;;;;;;;3.80;2.70;;;;;;;;;;6307800;22;20146;-62
2022/05/09 07:10:39;;;;;;;3.25;2.83;;;;;;;;;;6307945;22;20221;-62
2022/05/09 07:13:05;;;;;;;5.05;3.05;;;;;;;;;;6307622;22;20150;-62
2022/05/09 07:15:31;;;;;;;2.85;2.50;;;;;;;;;;6308013;22;20464;-62
2022/05/09 07:18:01;;;;;;;3.25;2.58;;;;;;;;;;6307960;22;20143;-62
2022/05/09 07:20:29;;;;;;;3.78;2.50;;;;;;;;;;6307926;22;20172;-61
2022/05/09 07:22:56;;;;;;;4.93;2.70;;;;;;;;;;6307606;22;20475;-62
2022/05/09 07:25:23;;;;;;;4.03;2.53;;;;;;;;;;6307401;22;20451;-62
2022/05/09 07:27:49;;;;;;;3.45;2.30;;;;;;;;;;6307838;22;20143;-62
2022/05/09 07:30:17;;;;;;;3.00;2.53;;;;;;;;;;6307850;22;20228;-62
2022/05/09 07:32:43;;;;;;;4.43;2.75;;;;;;;;;;6307401;22;20189;-61
2022/05/09 07:35:10;;;;;;;2.67;2.42;;;;;;;;;;6309134;22;20582;-62
2022/05/09 07:37:37;;;;;;;5.20;3.25;;;;;;;;;;6309878;22;20147;-62
2022/05/09 07:40:03;;;;;;;3.15;2.85;;;;;;;;;;6309296;22;20177;-62
2022/05/09 07:42:29;;;;;;;3.28;2.90;;;;;;;;;;6309328;22;20135;-62
2022/05/09 07:44:56;;;;;;;4.95;3.03;;;;;;;;;;6309535;22;20220;-66
2022/05/09 07:47:23;;;;;;;3.78;3.28;;;;;;;;;;6309643;22;20495;-62
2022/05/09 07:49:49;;;;;;;3.50;2.85;;;;;;;;;;6309481;22;20176;-62
2022/05/09 07:52:15;;;;;;;4.60;3.15;;;;;;;;;;6309414;22;20147;-63
2022/05/09 07:54:41;;;;;;;4.88;4.07;;;;;;;;;;6309172;22;20586;-61
2022/05/09 07:57:07;;;;;;;7.20;3.40;;;;;;;;;;6309342;22;20218;-62
2022/05/09 07:59:33;;;;;;;3.85;3.45;;;;;;;;;;6309355;22;20138;-61
2022/05/09 08:01:58;;;;;;;5.68;3.20;;;;;;;;;;6309545;22;20195;-61
2022/05/09 08:04:24;;;;;;;4.38;3.53;;;;;;;;;;6309281;22;20139;-62
2022/05/09 08:06:50;;;;;;;4.60;3.72;;;;;;;;;;6309154;22;20143;-62
2022/05/09 08:09:16;;;;;;;4.05;3.38;;;;;;;;;;6308811;22;20188;-62
2022/05/09 08:11:44;;;;;;;3.65;3.00;;;;;;;;;;6309058;22;20170;-61
2022/05/09 08:14:11;;;;;;;6.85;3.40;;;;;;;;;;6308939;22;20139;-62
2022/05/09 08:16:37;;;;;;;4.60;3.35;;;;;;;;;;6308995;22;20158;-62
2022/05/09 08:19:03;;;;;;;5.00;3.35;;;;;;;;;;6309121;22;20547;-62
2022/05/09 08:21:29;;;;;;;6.20;3.35;;;;;;;;;;6308997;22;20135;-62
2022/05/09 08:23:55;;;;;;;3.53;3.20;;;;;;;;;;6308953;22;20154;-62
2022/05/09 08:26:22;;;;;;;4.75;3.40;;;;;;;;;;6309057;22;20179;-62
2022/05/09 08:28:54;;;;;;;8.02;3.70;;;;;;;;;;6309145;22;20196;-63
2022/05/09 08:31:21;;;;;;;6.07;3.45;;;;;;;;;;6308961;22;20216;-62
2022/05/09 08:33:47;;;;;;;3.78;3.10;;;;;;;;;;6309353;22;20224;-61
2022/05/09 08:36:45;;;;;;;3.63;3.25;;;;;;;;;;6309005;22;20412;-60
2022/05/09 08:39:00;;;;;;;3.70;3.25;;;;;;;;;;6308476;22;20604;-62
2022/05/09 08:41:29;;;;;;;5.55;3.28;;;;;;;;;;6308980;22;20563;-62
2022/05/09 08:44:16;;;;;;;4.55;3.75;;;;;;;;;;6308591;22;20234;-61
2022/05/09 08:46:50;;;;;;;3.88;3.47;;;;;;;;;;6308665;22;20159;-62
2022/05/09 08:49:25;;;;;;;4.85;3.65;;;;;;;;;;6308898;22;20196;-62
2022/05/09 08:52:03;;;;;;;5.70;3.72;;;;;;;;;;6309389;22;20193;-63
2022/05/09 08:54:29;;;;;;;3.28;2.95;;;;;;;;;;6308789;22;20139;-62
2022/05/09 08:57:00;;;;;;;4.05;3.42;;;;;;;;;;6308591;22;20475;-62
2022/05/09 08:59:35;;;;;;;3.95;3.20;;;;;;;;;;6308363;22;20546;-62
2022/05/09 09:02:09;;;;;;;8.05;3.00;;;;;;;;;;6308946;22;20428;-62
2022/05/09 09:04:36;;;;;;;6.13;3.40;;;;;;;;;;6308593;22;20135;-62
2022/05/09 09:07:02;;;;;;;3.70;3.25;;;;;;;;;;6308959;22;20207;-60
2022/05/09 09:09:43;;;;;;;4.50;3.03;;;;;;;;;;6308442;22;20222;-62
2022/05/09 09:12:48;;;;;;;3.83;3.17;;;;;;;;;;6308801;22;20188;-62
2022/05/09 09:15:32;;;;;;;4.97;3.58;;;;;;;;;;6154269;23;20174;-61
2022/05/09 09:18:17;;;;;;;4.07;3.13;;;;;;;;;;6155012;23;20652;-61
2022/05/09 09:20:53;;;;;;;5.30;3.58;;;;;;;;;;6267483;22;20570;-62
2022/05/09 09:23:51;;;;;;;3.75;2.70;;;;;;;;;;6308674;22;20198;-63
2022/05/09 09:26:40;;;;;;;3.78;3.17;;;;;;;;;;6154640;23;20154;-63
2022/05/09 09:29:06;;;;;;;4.72;3.60;;;;;;;;;;6114202;23;20151;-62
2022/05/09 09:31:35;;;;;;;4.07;3.47;;;;;;;;;;6154792;23;20630;-62
2022/05/09 09:34:06;;;;;;;3.53;3.00;;;;;;;;;;6154558;23;20146;-62
2022/05/09 09:36:38;;;;;;;4.93;2.92;;;;;;;;;;6154088;23;20178;-63
2022/05/09 09:39:10;;;;;;;5.93;3.30;;;;;;;;;;6154464;23;20146;-62
2022/05/09 09:41:37;;;;;;;4.80;3.10;;;;;;;;;;6154263;23;20152;-63
2022/05/09 09:44:12;;;;;;;3.90;2.95;;;;;;;;;;6154189;23;20152;-62
2022/05/09 09:46:57;;;;;;;5.70;3.00;;;;;;;;;;6154459;23;20154;-62
2022/05/09 09:49:24;;;;;;;5.70;2.67;;;;;;;;;;6154488;23;20157;-62
2022/05/09 09:51:50;;;;;;;3.92;3.25;;;;;;;;;;6154233;23;20585;-62
2022/05/09 09:54:30;;;;;;;8.18;3.15;;;;;;;;;;6154128;23;20146;-61
2022/05/09 09:56:56;;;;;;;5.90;3.05;;;;;;;;;;6153516;23;20165;-62
2022/05/09 09:59:30;;;;;;;5.60;2.90;;;;;;;;;;6154528;23;20593;-62
2022/05/09 10:02:02;;;;;;;5.25;2.70;;;;;;;;;;6237096;22;20231;-61
2022/05/09 10:04:29;;;;;;;4.50;3.38;;;;;;;;;;6308662;22;20217;-63
2022/05/09 10:06:56;;;;;;;4.28;2.85;;;;;;;;;;6307815;22;20134;-60
2022/05/09 10:09:22;;;;;;;3.63;3.03;;;;;;;;;;6308471;22;20183;-62
2022/05/09 10:11:48;;;;;;;4.78;2.88;;;;;;;;;;6308102;22;20268;-63
2022/05/09 10:14:30;;;;;;;6.25;3.45;;;;;;;;;;6308429;22;20444;-61
2022/05/09 10:17:12;;;;;;;4.93;3.00;;;;;;;;;;6308381;22;20123;-61
2022/05/09 10:19:38;;;;;;;6.90;3.60;;;;;;;;;;6308385;22;20126;-62
2022/05/09 10:24:57;;;;;;;5.45;3.00;;;;;;;;;;6309649;22;20160;-62
2022/05/09 10:27:23;;;;;;;9.45;3.95;;;;;;;;;;6309410;22;20208;-61
2022/05/09 10:29:55;;;;;;;3.92;3.10;;;;;;;;;;6308796;22;20146;-60
2022/05/09 10:32:24;;;;;;;4.75;3.03;;;;;;;;;;6308813;22;20219;-61
2022/05/09 10:34:57;;;;;;;5.53;3.00;;;;;;;;;;6309514;22;20161;-61
2022/05/09 10:37:50;;;;;;;4.28;2.95;;;;;;;;;;6310210;22;20149;-60
2022/05/09 10:40:19;;;;;;;5.35;3.30;;;;;;;;;;6302628;22;20198;-61
2022/05/09 10:42:47;;;;;;;4.97;2.85;;;;;;;;;;6309739;22;20143;-61
2022/05/09 10:45:18;;;;;;;6.05;3.10;;;;;;;;;;6310507;22;20577;-61
2022/05/09 10:47:52;;;;;;;6.60;3.00;;;;;;;;;;6310112;22;20138;-61
2022/05/09 10:50:18;;;;;;;4.18;2.90;;;;;;;;;;6310426;22;20213;-61
2022/05/09 10:52:49;;;;;;;4.72;3.35;;;;;;;;;;6310142;22;20138;-61
2022/05/09 10:55:25;;;;;;;4.47;2.97;;;;;;;;;;6310743;22;20228;-62
2022/05/09 10:58:02;;;;;;;4.20;3.30;;;;;;;;;;6312697;22;20138;-61
2022/05/09 11:00:28;;;;;;;4.40;3.42;;;;;;;;;;6312709;22;20169;-61
2022/05/09 11:03:04;;;;;;;3.90;3.33;;;;;;;;;;6314779;22;20213;-62
2022/05/09 11:05:40;;;;;;;4.05;3.13;;;;;;;;;;6321867;22;20130;-62
2022/05/09 11:08:12;;;;;;;4.85;3.03;;;;;;;;;;6326008;22;20155;-62
2022/05/09 11:10:45;;;;;;;4.15;2.85;;;;;;;;;;6322758;22;20127;-61
2022/05/09 11:13:17;;;;;;;4.43;3.30;;;;;;;;;;6310340;22;20130;-62
2022/05/09 11:15:49;;;;;;;5.50;3.85;;;;;;;;;;6309999;22;20176;-62
2022/05/09 11:18:29;;;;;;;6.80;3.63;;;;;;;;;;6309623;22;20417;-62
2022/05/09 11:20:55;;;;;;;5.40;3.53;;;;;;;;;;6282700;22;20230;-62
2022/05/09 11:23:32;;;;;;;4.72;3.65;;;;;;;;;;6309651;22;20462;-62
2022/05/09 11:26:02;;;;;;;5.03;3.72;;;;;;;;;;6309657;22;20178;-62
2022/05/09 11:28:27;;;;;;;4.72;3.40;;;;;;;;;;6309924;22;20146;-62
2022/05/09 11:30:56;;;;;;;5.97;3.75;;;;;;;;;;6309448;22;20215;-61
2022/05/09 11:33:46;;;;;;;6.82;3.85;;;;;;;;;;6310008;22;20150;-60
2022/05/09 11:36:32;;;;;;;5.65;3.75;;;;;;;;;;6309826;22;20163;-62
2022/05/09 11:39:17;;;;;;;7.85;3.63;;;;;;;;;;6309759;22;20606;-62
2022/05/09 11:41:53;;;;;;;6.47;3.83;;;;;;;;;;6309858;22;20195;-62
2022/05/09 11:44:20;;;;;;;5.05;3.50;;;;;;;;;;6309787;22;20677;-62
2022/05/09 11:46:55;;;;;;;5.13;3.60;;;;;;;;;;6309546;22;20146;-62
2022/05/09 11:49:43;;;;;;;5.50;3.65;;;;;;;;;;6309260;22;20144;-61
2022/05/09 11:52:20;;;;;;;5.50;3.80;;;;;;;;;;6309384;22;20135;-61
2022/05/09 11:54:48;;;;;;;4.30;3.03;;;;;;;;;;6309272;22;20214;-60
2022/05/09 11:57:23;;;;;;;4.38;3.30;;;;;;;;;;6310026;22;20153;-61
2022/05/09 11:59:54;;;;;;;6.72;4.47;;;;;;;;;;6312584;22;20315;-61
2022/05/09 12:02:38;;;;;;;6.03;3.63;;;;;;;;;;6309280;22;20218;-61
2022/05/09 12:05:23;;;;;;;4.32;3.40;;;;;;;;;;6309737;22;20493;-61
2022/05/09 12:07:55;;;;;;;4.60;3.30;;;;;;;;;;6310154;22;20134;-61
2022/05/09 12:10:27;;;;;;;3.05;2.75;;;;;;;;;;6320336;22;20119;-62
2022/05/09 12:12:57;;;;;;;4.25;3.40;;;;;;;;;;6285301;22;20531;-62
2022/05/09 12:15:23;;;;;;;3.80;2.75;;;;;;;;;;6309625;22;20174;-61
2022/05/09 12:18:08;;;;;;;3.95;2.58;;;;;;;;;;6309410;22;20568;-61
2022/05/09 12:20:37;;;;;;;3.38;2.72;;;;;;;;;;6309114;22;20130;-61
2022/05/09 12:23:05;;;;;;;4.95;2.92;;;;;;;;;;6309296;22;20508;-62
2022/05/09 12:25:34;;;;;;;4.25;2.65;;;;;;;;;;6309671;22;20157;-62
2022/05/09 12:28:02;;;;;;;4.05;2.92;;;;;;;;;;6309285;22;20542;-62
2022/05/09 12:30:42;;;;;;;3.03;2.75;;;;;;;;;;6309057;22;20193;-62
2022/05/09 12:33:14;;;;;;;5.97;3.58;;;;;;;;;;6308962;22;20454;-61
2022/05/09 12:35:41;;;;;;;4.18;3.00;;;;;;;;;;6309142;22;20748;-60
2022/05/09 12:38:10;;;;;;;10.50;2.67;;;;;;;;;;6309172;22;20157;-60
2022/05/09 12:40:36;;;;;;;9.45;3.63;;;;;;;;;;6309182;22;20138;-60
2022/05/09 12:43:02;;;;;;;3.50;3.03;;;;;;;;;;6309601;22;20196;-61
2022/05/09 12:45:29;;;;;;;6.30;2.70;;;;;;;;;;6309112;22;20220;-61
2022/05/09 12:47:56;;;;;;;3.65;2.42;;;;;;;;;;6308947;22;20142;-60
2022/05/09 12:50:27;;;;;;;10.75;3.65;;;;;;;;;;6309010;22;20565;-61
2022/05/09 12:52:54;;;;;;;3.80;2.30;;;;;;;;;;6309146;22;20222;-61
2022/05/09 12:58:22;;;;;;;4.90;2.58;;;;;;;;;;6308715;22;20133;-62
2022/05/09 13:00:48;;;;;;;3.38;2.50;;;;;;;;;;6309261;22;20229;-61
2022/05/09 13:03:15;;;;;;;4.20;2.20;;;;;;;;;;6308732;22;20162;-60
2022/05/09 13:05:43;;;;;;;4.65;2.38;;;;;;;;;;6309101;22;20463;-61
2022/05/09 13:08:10;;;;;;;3.50;2.10;;;;;;;;;;6308766;22;20569;-62
2022/05/09 13:10:56;;;;;;;4.55;2.40;;;;;;;;;;6309156;22;20158;-62
2022/05/09 13:13:27;;;;;;;2.80;2.33;;;;;;;;;;6308664;22;20142;-62
2022/05/09 13:15:54;;;;;;;3.97;2.20;;;;;;;;;;6309027;22;20177;-62
2022/05/09 13:18:22;;;;;;;3.60;2.67;;;;;;;;;;6308760;22;20591;-61
2022/05/09 13:20:50;;;;;;;3.50;2.65;;;;;;;;;;6309578;22;20231;-62
2022/05/09 13:23:16;;;;;;;4.72;2.45;;;;;;;;;;6308859;22;20331;-61
2022/05/09 13:25:47;;;;;;;4.25;2.05;;;;;;;;;;6308830;22;20146;-60
2022/05/09 13:28:14;;;;;;;2.90;2.47;;;;;;;;;;6308836;22;20214;-60
2022/05/09 13:30:44;;;;;;;3.63;2.35;;;;;;;;;;6309434;22;20229;-61
2022/05/09 13:33:15;;;;;;;4.05;2.40;;;;;;;;;;6309561;22;20392;-61
2022/05/09 13:35:41;;;;;;;5.40;2.35;;;;;;;;;;6309171;22;20165;-61
2022/05/09 13:38:16;;;;;;;7.03;2.20;;;;;;;;;;6309218;22;20142;-62
2022/05/09 13:40:42;;;;;;;3.17;2.30;;;;;;;;;;6309131;22;20123;-61
2022/05/09 13:43:08;;;;;;;3.78;2.40;;;;;;;;;;6308816;22;20146;-61
2022/05/09 13:45:34;;;;;;;4.30;2.58;;;;;;;;;;6308912;22;20157;-60
2022/05/09 13:48:01;;;;;;;4.80;3.35;;;;;;;;;;6309006;22;20145;-61
2022/05/09 13:50:39;;;;;;;3.00;2.40;;;;;;;;;;6308890;22;20558;-60
2022/05/09 13:53:07;;;;;;;3.50;2.13;;;;;;;;;;6308712;22;20494;-60
2022/05/09 13:55:34;;;;;;;4.18;2.40;;;;;;;;;;6308619;22;20219;-61
2022/05/09 13:58:02;;;;;;;6.78;2.72;;;;;;;;;;6308547;22;20189;-61
2022/05/09 14:00:34;;;;;;;2.67;2.47;;;;;;;;;;6308688;22;20139;-61
2022/05/09 14:03:02;;;;;;;4.03;2.55;;;;;;;;;;6308655;22;20229;-61
2022/05/09 14:05:30;;;;;;;4.95;2.67;;;;;;;;;;6308555;22;20153;-62
2022/05/09 14:07:59;;;;;;;2.80;2.03;;;;;;;;;;6308299;22;20199;-61
2022/05/09 14:10:30;;;;;;;3.72;2.42;;;;;;;;;;6308626;22;20146;-62
2022/05/09 14:12:57;;;;;;;2.65;2.20;;;;;;;;;;6308663;22;20137;-62
2022/05/09 14:15:24;;;;;;;3.25;2.35;;;;;;;;;;6308487;22;20245;-62
2022/05/09 14:18:02;;;;;;;4.30;3.03;;;;;;;;;;6308688;22;20146;-62
2022/05/09 14:20:31;;;;;;;5.93;2.88;;;;;;;;;;6308426;22;20139;-62
2022/05/09 14:22:58;;;;;;;3.40;2.60;;;;;;;;;;6308380;22;20142;-62
2022/05/09 14:31:34;;;;;;;4.32;2.50;;;;;;;;;;6303921;22;20180;-62
2022/05/09 14:34:01;;;;;;;3.50;2.17;;;;;;;;;;6308035;22;20233;-62
2022/05/09 14:36:33;;;;;;;3.45;2.53;;;;;;;;;;6307936;22;20174;-63
2022/05/09 14:38:59;;;;;;;4.22;2.58;;;;;;;;;;6308351;22;20138;-62
2022/05/09 14:41:37;;;;;;;4.50;2.92;;;;;;;;;;6308355;22;20157;-63
2022/05/09 14:44:11;;;;;;;3.78;2.40;;;;;;;;;;6308281;22;20134;-62
2022/05/09 14:46:55;;;;;;;3.03;2.40;;;;;;;;;;6308016;22;20181;-62
2022/05/09 14:49:21;;;;;;;3.50;2.65;;;;;;;;;;6308088;22;20152;-63
2022/05/09 14:51:57;;;;;;;4.32;2.25;;;;;;;;;;6308051;22;20171;-63
2022/05/09 14:54:23;;;;;;;3.65;2.75;;;;;;;;;;6308208;22;20263;-63
2022/05/09 14:59:35;;;;;;;7.25;3.03;;;;;;;;;;6307925;22;20157;-62
2022/05/09 15:02:06;;;;;;;4.07;2.50;;;;;;;;;;6308141;22;20221;-62
2022/05/09 15:04:32;;;;;;;2.95;2.50;;;;;;;;;;6307626;22;20217;-63
2022/05/09 15:06:59;;;;;;;4.03;2.83;;;;;;;;;;6307687;22;20153;-63
2022/05/09 15:09:25;;;;;;;2.65;2.40;;;;;;;;;;6307830;22;20193;-63
2022/05/09 15:11:52;;;;;;;4.38;2.90;;;;;;;;;;6307720;22;20574;-63
2022/05/09 15:14:19;;;;;;;3.00;2.53;;;;;;;;;;6307699;22;20573;-65